Time;durP1;ratioP1;P1;durP2;ratioP2;P2;SDS_P1;SDS_P2;PMS_P1;PMS_P2;Temp;Humidity;BMP_temperature;BMP_pressure;BME280_temperature;BME280_humidity;BME280_pressure;Samples;Min_cycle;Max_cycle;Signal;HPM_P1;HPM_P2
2023/07/27 00:00:44;;;;;;;;;;;;;;;21.21;43.55;101093.19;5059026;28;20537;-84
2023/07/27 00:03:09;;;;;;;;;;;;;;;21.20;43.64;101098.94;5056579;28;20384;-83
2023/07/27 00:05:35;;;;;;;;;;;;;;;21.18;43.80;101101.16;5059067;28;20396;-84
2023/07/27 00:08:00;;;;;;;;;;;;;;;21.13;43.71;101100.16;5060668;28;20376;-84
2023/07/27 00:10:26;;;;;;;;;;;;;;;21.13;43.73;101104.81;5057298;28;19924;-84
2023/07/27 00:12:52;;;;;;;;;;;;;;;21.06;43.66;101101.72;5060574;28;19943;-84
2023/07/27 00:15:17;;;;;;;;;;;;;;;21.02;43.63;101104.28;5060486;28;19916;-84
2023/07/27 00:17:42;;;;;;;;;;;;;;;21.01;43.78;101093.69;5057021;28;19921;-84
2023/07/27 00:20:08;;;;;;;;;;;;;;;21.02;43.66;101098.03;5064184;28;19917;-84
2023/07/27 00:22:33;;;;;;;;;;;;;;;21.03;43.66;101095.00;5060107;28;19940;-84
2023/07/27 00:24:59;;;;;;;;;;;;;;;20.96;43.78;101099.25;5059611;28;19931;-84
2023/07/27 00:27:24;;;;;;;;;;;;;;;20.85;43.77;101093.25;5063200;28;20043;-84
2023/07/27 00:29:49;;;;;;;;;;;;;;;20.77;43.78;101102.94;5060030;28;20053;-84
2023/07/27 00:32:15;;;;;;;;;;;;;;;20.71;43.68;101098.75;5061336;28;20159;-84
2023/07/27 00:34:40;;;;;;;;;;;;;;;20.70;43.58;101097.13;5069725;28;20415;-84
2023/07/27 00:37:05;;;;;;;;;;;;;;;20.65;43.69;101097.25;5062050;28;20403;-84
2023/07/27 00:39:31;;;;;;;;;;;;;;;20.65;44.06;101101.91;5059139;28;19927;-84
2023/07/27 00:41:56;;;;;;;;;;;;;;;20.65;43.83;101097.25;5055351;28;20007;-84
2023/07/27 00:44:21;;;;;;;;;;;;;;;20.65;43.82;101101.91;5062322;28;19916;-84
2023/07/27 00:46:47;;;;;;;;;;;;;;;20.65;43.70;101099.97;5062962;28;19924;-84
2023/07/27 00:49:12;;;;;;;;;;;;;;;20.61;43.56;101093.50;5059534;28;19952;-84
2023/07/27 00:51:40;;;;;;;;;;;;;;;20.56;43.71;101093.63;5056006;28;19921;-84
2023/07/27 00:54:07;;;;;;;;;;;;;;;20.46;43.68;101088.41;5062299;28;19916;-84
2023/07/27 00:56:33;;;;;;;;;;;;;;;20.33;43.44;101097.38;5063851;28;19920;-84
2023/07/27 00:58:59;;;;;;;;;;;;;;;20.21;44.01;101093.25;5061277;28;19987;-84
2023/07/27 01:01:25;;;;;;;;;;;;;;;20.11;43.85;101107.09;5053209;28;19916;-84
2023/07/27 01:03:51;;;;;;;;;;;;;;;20.07;44.07;101100.63;5060824;28;19923;-84
2023/07/27 01:06:16;;;;;;;;;;;;;;;20.05;44.11;101096.59;5061663;28;20354;-84
2023/07/27 01:08:42;;;;;;;;;;;;;;;20.03;44.28;101088.75;5060913;28;20154;-84
2023/07/27 01:11:19;;;;;;;;;;;;;;;20.01;43.97;101090.97;5061766;28;19916;-84
2023/07/27 01:13:57;;;;;;;;;;;;;;;19.98;44.32;101075.25;5055882;28;20626;-84
2023/07/27 01:16:26;;;;;;;;;;;;;;;19.99;44.04;101079.59;5059099;28;19920;-84
2023/07/27 01:18:51;;;;;;;;;;;;;;;19.99;44.02;101086.94;5054296;28;19928;-84
2023/07/27 01:21:19;;;;;;;;;;;;;;;19.97;43.80;101092.69;5063596;28;19916;-83
2023/07/27 01:24:03;;;;;;;;;;;;;;;19.92;44.14;101092.75;5060950;28;21370;-84
2023/07/27 01:26:47;;;;;;;;;;;;;;;19.87;44.26;101087.44;5062069;28;19928;-83
2023/07/27 01:29:19;;;;;;;;;;;;;;;19.83;44.47;101086.44;5053043;28;19921;-84
2023/07/27 01:31:47;;;;;;;;;;;;;;;19.78;44.46;101083.81;5062097;28;21248;-84
2023/07/27 01:34:16;;;;;;;;;;;;;;;19.73;44.33;101083.91;5060586;28;19924;-84
2023/07/27 01:36:43;;;;;;;;;;;;;;;19.69;44.66;101089.13;5060769;28;19917;-84
2023/07/27 01:39:10;;;;;;;;;;;;;;;19.65;44.31;101079.16;5064204;28;19917;-84
2023/07/27 01:41:41;;;;;;;;;;;;;;;19.55;44.58;101080.94;5057809;28;19924;-84
2023/07/27 01:44:07;;;;;;;;;;;;;;;19.50;44.69;101075.59;5054587;28;20072;-84
2023/07/27 01:46:33;;;;;;;;;;;;;;;19.48;44.83;101083.25;5061075;28;19930;-84
2023/07/27 01:48:59;;;;;;;;;;;;;;;19.47;44.80;101086.25;5054610;28;19916;-84
2023/07/27 01:51:25;;;;;;;;;;;;;;;19.50;44.77;101082.94;5060227;28;19921;-84
2023/07/27 01:53:51;;;;;;;;;;;;;;;19.52;44.81;101081.53;5062045;28;19927;-84
2023/07/27 01:56:17;;;;;;;;;;;;;;;19.53;44.91;101085.84;5060104;28;19970;-84
2023/07/27 01:58:42;;;;;;;;;;;;;;;19.53;44.90;101085.06;5057672;28;20253;-84
2023/07/27 02:01:08;;;;;;;;;;;;;;;19.51;44.92;101082.63;5053989;28;20496;-84
2023/07/27 02:03:34;;;;;;;;;;;;;;;19.48;44.80;101082.44;5053786;28;20320;-84
2023/07/27 02:06:00;;;;;;;;;;;;;;;19.41;45.20;101082.03;5051216;28;19920;-84
2023/07/27 02:08:26;;;;;;;;;;;;;;;19.40;44.79;101083.13;5049403;28;20084;-84
2023/07/27 02:10:55;;;;;;;;;;;;;;;19.37;45.00;101081.78;5058392;28;19921;-84
2023/07/27 02:13:40;;;;;;;;;;;;;;;19.35;45.01;101091.34;5059660;28;19955;-84
2023/07/27 02:16:17;;;;;;;;;;;;;;;19.31;44.89;101099.28;5010709;28;19959;-84
2023/07/27 02:18:45;;;;;;;;;;;;;;;19.29;45.15;101090.66;5057202;28;20128;-84
2023/07/27 02:21:11;;;;;;;;;;;;;;;19.28;44.96;101094.47;5053012;28;19962;-84
2023/07/27 02:23:37;;;;;;;;;;;;;;;19.24;44.79;101088.81;5064208;28;20152;-84
2023/07/27 02:26:03;;;;;;;;;;;;;;;19.19;45.28;101085.38;5059464;28;19928;-84
2023/07/27 02:28:28;;;;;;;;;;;;;;;19.15;45.29;101084.34;5054691;28;20399;-84
2023/07/27 02:30:54;;;;;;;;;;;;;;;19.11;45.31;101073.28;5057393;28;19925;-84
2023/07/27 02:33:19;;;;;;;;;;;;;;;19.07;45.11;101085.84;5054176;28;19935;-84
2023/07/27 02:35:44;;;;;;;;;;;;;;;19.05;45.07;101089.97;5057174;28;19931;-84
2023/07/27 02:38:10;;;;;;;;;;;;;;;19.03;45.14;101087.56;5059630;28;19974;-83
2023/07/27 02:40:35;;;;;;;;;;;;;;;18.93;45.29;101099.38;5057215;28;19928;-84
2023/07/27 02:43:01;;;;;;;;;;;;;;;18.85;45.41;101091.91;5051896;28;19916;-84
2023/07/27 02:45:27;;;;;;;;;;;;;;;18.84;45.40;101092.97;5055868;28;20048;-84
2023/07/27 02:47:52;;;;;;;;;;;;;;;18.84;45.35;101092.19;5058505;28;20316;-84
2023/07/27 02:50:17;;;;;;;;;;;;;;;18.82;45.27;101091.66;5060079;28;19916;-84
2023/07/27 02:52:44;;;;;;;;;;;;;;;18.76;45.35;101096.38;5059720;28;19921;-84
2023/07/27 02:55:09;;;;;;;;;;;;;;;18.73;45.41;101086.13;5060049;28;20391;-83
2023/07/27 02:57:35;;;;;;;;;;;;;;;18.71;45.20;101080.97;5054816;28;19916;-84
2023/07/27 03:00:01;;;;;;;;;;;;;;;18.70;45.42;101071.22;5060482;28;19924;-84
2023/07/27 03:02:26;;;;;;;;;;;;;;;18.72;45.46;101076.34;5060245;28;19924;-84
2023/07/27 03:04:51;;;;;;;;;;;;;;;18.73;45.19;101075.25;5058959;28;19923;-84
2023/07/27 03:07:17;;;;;;;;;;;;;;;18.69;45.38;101076.94;5056931;28;19921;-84
2023/07/27 03:09:42;;;;;;;;;;;;;;;18.64;45.40;101074.28;5057552;28;19938;-84
2023/07/27 03:12:08;;;;;;;;;;;;;;;18.65;45.21;101075.91;5060596;28;19917;-84
2023/07/27 03:14:33;;;;;;;;;;;;;;;18.62;45.51;101077.28;5051966;28;20293;-84
2023/07/27 03:16:58;;;;;;;;;;;;;;;18.60;45.45;101075.94;5059337;28;19920;-84
2023/07/27 03:19:23;;;;;;;;;;;;;;;18.58;45.48;101073.53;5063059;28;19939;-84
2023/07/27 03:21:49;;;;;;;;;;;;;;;18.56;45.62;101066.78;5062874;28;19928;-84
2023/07/27 03:24:16;;;;;;;;;;;;;;;18.50;45.67;101076.13;5062058;28;20393;-84
2023/07/27 03:26:42;;;;;;;;;;;;;;;18.45;45.50;101070.75;5055807;28;19928;-84
2023/07/27 03:29:07;;;;;;;;;;;;;;;18.41;45.79;101067.81;5052626;28;19979;-84
2023/07/27 03:31:32;;;;;;;;;;;;;;;18.37;45.90;101070.31;5057356;28;19973;-84
2023/07/27 03:33:58;;;;;;;;;;;;;;;18.38;45.98;101062.97;5055260;28;20286;-84
2023/07/27 03:36:23;;;;;;;;;;;;;;;18.39;45.89;101065.38;5058196;28;20296;-84
2023/07/27 03:38:48;;;;;;;;;;;;;;;18.42;45.88;101072.94;5061807;28;19920;-84
2023/07/27 03:41:14;;;;;;;;;;;;;;;18.43;45.94;101079.97;5060561;28;20462;-84
2023/07/27 03:43:39;;;;;;;;;;;;;;;18.43;46.01;101066.41;5055468;28;19974;-84
2023/07/27 03:46:05;;;;;;;;;;;;;;;18.46;45.99;101067.72;5058818;28;19927;-84
2023/07/27 03:48:31;;;;;;;;;;;;;;;18.49;45.77;101077.19;5058779;28;20418;-84
2023/07/27 03:50:59;;;;;;;;;;;;;;;18.53;45.91;101075.53;5059549;28;20286;-84
2023/07/27 03:53:25;;;;;;;;;;;;;;;18.55;46.05;101081.47;5060858;28;19917;-84
2023/07/27 03:55:50;;;;;;;;;;;;;;;18.51;45.97;101080.44;5062843;28;20365;-84
2023/07/27 03:58:16;;;;;;;;;;;;;;;18.49;46.14;101085.31;5055776;28;20324;-84
2023/07/27 04:00:41;;;;;;;;;;;;;;;18.50;46.00;101085.06;5062752;28;19928;-84
2023/07/27 04:03:06;;;;;;;;;;;;;;;18.55;46.14;101084.19;5062662;28;20003;-83
2023/07/27 04:05:32;;;;;;;;;;;;;;;18.54;46.14;101086.09;5060725;28;20379;-83
2023/07/27 04:07:57;;;;;;;;;;;;;;;18.52;46.34;101077.44;5063407;28;20410;-84
2023/07/27 04:10:24;;;;;;;;;;;;;;;18.57;46.49;101077.34;5057861;28;19920;-84
2023/07/27 04:12:50;;;;;;;;;;;;;;;18.62;46.41;101079.19;5063312;28;19932;-84
2023/07/27 04:15:15;;;;;;;;;;;;;;;18.68;46.37;101078.06;5060239;28;19920;-84
2023/07/27 04:17:40;;;;;;;;;;;;;;;18.72;46.44;101084.50;5059688;28;19917;-84
2023/07/27 04:20:07;;;;;;;;;;;;;;;18.75;46.48;101081.19;5066146;28;19950;-84
2023/07/27 04:22:33;;;;;;;;;;;;;;;18.74;46.80;101079.59;5057746;28;20061;-84
2023/07/27 04:24:58;;;;;;;;;;;;;;;18.80;46.68;101075.69;5056897;28;19944;-84
2023/07/27 04:27:23;;;;;;;;;;;;;;;18.85;46.75;101072.06;5060444;28;20308;-84
2023/07/27 04:29:49;;;;;;;;;;;;;;;18.91;46.70;101077.16;5063235;28;20616;-84
2023/07/27 04:32:14;;;;;;;;;;;;;;;18.91;46.98;101074.44;5064587;28;20352;-83
2023/07/27 04:34:39;;;;;;;;;;;;;;;18.88;46.99;101080.47;5057521;28;20412;-83
2023/07/27 04:37:04;;;;;;;;;;;;;;;18.86;47.11;101082.66;5057160;28;19916;-84
2023/07/27 04:39:30;;;;;;;;;;;;;;;18.90;46.88;101086.41;5055606;28;19959;-84
2023/07/27 04:41:55;;;;;;;;;;;;;;;18.92;47.09;101086.91;5054614;28;19948;-84
2023/07/27 04:44:20;;;;;;;;;;;;;;;18.92;46.93;101081.47;5058129;28;19920;-84
2023/07/27 04:46:46;;;;;;;;;;;;;;;18.93;47.18;101088.50;5060157;28;19963;-84
2023/07/27 04:49:11;;;;;;;;;;;;;;;18.92;47.55;101086.09;5061916;28;19920;-84
2023/07/27 04:51:37;;;;;;;;;;;;;;;18.91;47.72;101079.84;5057812;28;20296;-84
2023/07/27 04:54:03;;;;;;;;;;;;;;;18.97;47.54;101072.44;5060937;28;19923;-83
2023/07/27 04:56:29;;;;;;;;;;;;;;;19.02;47.63;101081.28;5056849;28;20411;-84
2023/07/27 04:58:55;;;;;;;;;;;;;;;19.08;47.67;101078.50;5063597;28;19916;-85
2023/07/27 05:01:20;;;;;;;;;;;;;;;19.18;47.74;101075.63;5062395;28;20003;-84
2023/07/27 05:03:45;;;;;;;;;;;;;;;19.22;47.51;101074.75;5057775;28;19924;-84
2023/07/27 05:06:11;;;;;;;;;;;;;;;19.28;47.87;101073.53;5062910;28;19963;-83
2023/07/27 05:08:36;;;;;;;;;;;;;;;19.37;47.53;101067.41;5057931;28;19987;-84
2023/07/27 05:11:08;;;;;;;;;;;;;;;19.46;47.52;101066.44;5059314;28;19924;-84
2023/07/27 05:13:33;;;;;;;;;;;;;;;19.53;47.79;101069.56;5057634;28;20014;-84
2023/07/27 05:16:00;;;;;;;;;;;;;;;19.60;47.43;101063.78;5057023;28;20317;-84
2023/07/27 05:18:25;;;;;;;;;;;;;;;19.70;47.55;101057.31;5062224;28;19924;-83
2023/07/27 05:20:51;;;;;;;;;;;;;;;19.78;47.50;101071.03;5060365;28;19924;-84
2023/07/27 05:23:16;;;;;;;;;;;;;;;19.87;47.22;101065.69;5059444;28;19927;-84
2023/07/27 05:25:41;;;;;;;;;;;;;;;19.98;47.25;101056.22;5057544;28;19986;-84
2023/07/27 05:28:06;;;;;;;;;;;;;;;20.06;47.21;101052.78;5059428;28;19916;-82
2023/07/27 05:30:32;;;;;;;;;;;;;;;20.18;47.25;101057.69;5059212;28;19921;-83
2023/07/27 05:32:57;;;;;;;;;;;;;;;20.30;47.03;101059.91;5062133;28;19931;-86
2023/07/27 05:35:22;;;;;;;;;;;;;;;20.45;46.71;101054.13;5064718;28;19924;-84
2023/07/27 05:37:48;;;;;;;;;;;;;;;20.56;46.48;101044.63;5059553;28;19924;-84
2023/07/27 05:40:16;;;;;;;;;;;;;;;20.68;46.52;101055.78;5065288;28;20532;-85
2023/07/27 05:42:42;;;;;;;;;;;;;;;20.77;46.64;101051.22;5063010;28;19917;-87
2023/07/27 05:45:07;;;;;;;;;;;;;;;20.96;46.03;101055.66;5057843;28;21638;-83
2023/07/27 05:47:33;;;;;;;;;;;;;;;21.10;46.03;101061.84;5061651;28;20017;-84
2023/07/27 05:49:58;;;;;;;;;;;;;;;21.24;45.85;101067.22;5063593;28;20016;-84
2023/07/27 05:52:24;;;;;;;;;;;;;;;21.28;45.75;101062.78;5065653;28;19924;-84
2023/07/27 05:54:49;;;;;;;;;;;;;;;21.36;45.91;101065.59;5056981;28;20438;-84
2023/07/27 05:57:15;;;;;;;;;;;;;;;21.42;45.87;101069.78;5060825;28;20434;-84
2023/07/27 05:59:40;;;;;;;;;;;;;;;21.48;45.46;101066.91;5049537;28;20408;-83
2023/07/27 06:02:05;;;;;;;;;;;;;;;21.47;45.58;101066.09;5050552;28;20311;-83
2023/07/27 06:04:31;;;;;;;;;;;;;;;21.51;45.55;101066.28;5055100;28;20017;-84
2023/07/27 06:06:57;;;;;;;;;;;;;;;21.60;45.70;101067.94;5057423;28;19925;-83
2023/07/27 06:09:23;;;;;;;;;;;;;;;21.67;45.58;101060.09;5060886;28;19970;-83
2023/07/27 06:11:48;;;;;;;;;;;;;;;21.80;45.33;101063.84;5057994;28;19970;-85
2023/07/27 06:14:13;;;;;;;;;;;;;;;21.88;45.13;101062.25;5057217;28;19980;-85
2023/07/27 06:16:39;;;;;;;;;;;;;;;21.92;44.86;101060.50;5061455;28;20602;-84
2023/07/27 06:19:04;;;;;;;;;;;;;;;22.04;44.55;101068.88;5056490;28;19964;-84
2023/07/27 06:21:30;;;;;;;;;;;;;;;22.12;44.46;101072.78;5058504;28;19916;-85
2023/07/27 06:23:55;;;;;;;;;;;;;;;22.22;44.63;101065.09;5054463;28;20449;-85
2023/07/27 06:26:20;;;;;;;;;;;;;;;22.39;44.26;101071.69;5056308;28;19959;-85
2023/07/27 06:28:46;;;;;;;;;;;;;;;22.58;44.17;101067.53;5059386;28;19963;-85
2023/07/27 06:31:11;;;;;;;;;;;;;;;22.74;43.83;101077.97;5054855;28;19924;-87
2023/07/27 06:33:36;;;;;;;;;;;;;;;22.84;43.66;101074.97;5057299;28;20003;-84
2023/07/27 06:36:02;;;;;;;;;;;;;;;22.97;43.43;101073.16;5051786;28;20002;-82
2023/07/27 06:38:27;;;;;;;;;;;;;;;23.02;43.40;101065.63;5052268;28;20246;-84
2023/07/27 06:40:53;;;;;;;;;;;;;;;23.17;43.44;101073.31;5053044;28;20005;-85
2023/07/27 06:43:18;;;;;;;;;;;;;;;23.32;43.39;101071.97;5054932;28;20059;-84
2023/07/27 06:45:43;;;;;;;;;;;;;;;23.49;43.00;101069.19;5056120;28;20393;-84
2023/07/27 06:48:09;;;;;;;;;;;;;;;23.66;42.81;101071.09;5056613;28;19916;-86
2023/07/27 06:50:34;;;;;;;;;;;;;;;23.76;42.59;101056.25;5059791;28;20465;-86
2023/07/27 06:52:59;;;;;;;;;;;;;;;23.80;42.55;101062.66;5056570;28;19924;-85
2023/07/27 06:55:25;;;;;;;;;;;;;;;23.91;42.62;101060.38;5051535;28;19924;-85
2023/07/27 06:57:50;;;;;;;;;;;;;;;24.03;42.44;101054.97;5057937;28;19931;-84
2023/07/27 07:00:15;;;;;;;;;;;;;;;24.16;42.29;101053.94;5062553;28;19979;-85
2023/07/27 07:02:41;;;;;;;;;;;;;;;24.29;42.28;101047.44;5062748;28;19920;-86
2023/07/27 07:05:06;;;;;;;;;;;;;;;24.44;42.03;101043.31;5064770;28;20388;-85
2023/07/27 07:07:32;;;;;;;;;;;;;;;24.59;41.68;101041.88;5057414;28;19955;-86
2023/07/27 07:09:58;;;;;;;;;;;;;;;24.71;41.68;101039.19;5058604;28;19943;-85
2023/07/27 07:12:24;;;;;;;;;;;;;;;24.79;41.30;101043.81;5061196;28;20412;-85
2023/07/27 07:14:49;;;;;;;;;;;;;;;24.88;41.28;101030.00;5059151;28;19920;-86
2023/07/27 07:17:14;;;;;;;;;;;;;;;24.96;40.52;101038.16;5064626;28;20351;-84
2023/07/27 07:19:40;;;;;;;;;;;;;;;25.04;40.69;101030.22;5061036;28;20411;-84
2023/07/27 07:22:05;;;;;;;;;;;;;;;25.12;40.85;101021.88;5062984;28;20463;-83
2023/07/27 07:24:31;;;;;;;;;;;;;;;25.26;40.41;101021.56;5063150;28;19917;-84
2023/07/27 07:26:56;;;;;;;;;;;;;;;25.31;40.28;101021.34;5058983;28;20389;-84
2023/07/27 07:29:22;;;;;;;;;;;;;;;25.38;40.08;101018.03;5064006;28;19920;-85
2023/07/27 07:31:47;;;;;;;;;;;;;;;25.48;39.68;101021.13;5058095;28;20292;-85
2023/07/27 07:34:13;;;;;;;;;;;;;;;25.53;39.39;101020.91;5061490;28;20312;-83
2023/07/27 07:36:38;;;;;;;;;;;;;;;25.66;39.58;101015.41;5062918;28;19924;-83
2023/07/27 07:39:03;;;;;;;;;;;;;;;25.80;39.41;101013.16;5060988;28;19943;-85
2023/07/27 07:41:29;;;;;;;;;;;;;;;25.89;38.92;101022.09;5057785;28;19920;-85
2023/07/27 07:43:54;;;;;;;;;;;;;;;25.95;38.53;101028.94;5060304;28;20288;-85
2023/07/27 07:46:19;;;;;;;;;;;;;;;26.06;38.17;101019.09;5061198;28;20407;-85
2023/07/27 07:48:44;;;;;;;;;;;;;;;26.15;38.37;101022.47;5063260;28;19935;-84
2023/07/27 07:51:14;;;;;;;;;;;;;;;26.16;37.81;101018.59;5066620;28;19916;-84
2023/07/27 07:53:39;;;;;;;;;;;;;;;26.11;37.70;101018.84;5063597;28;19936;-83
2023/07/27 07:56:11;;;;;;;;;;;;;;;26.05;37.65;101014.75;5064369;28;20292;-85
2023/07/27 07:58:37;;;;;;;;;;;;;;;26.08;37.73;101019.53;5059007;28;20042;-87
2023/07/27 08:01:02;;;;;;;;;;;;;;;26.13;37.71;101029.47;5060663;28;19928;-86
2023/07/27 08:03:27;;;;;;;;;;;;;;;26.18;37.58;101010.81;5059944;28;19920;-86
2023/07/27 08:05:53;;;;;;;;;;;;;;;26.23;37.29;101004.28;5060451;28;19946;-84
2023/07/27 08:08:18;;;;;;;;;;;;;;;26.17;37.42;101003.72;5060069;28;19966;-84
2023/07/27 08:10:43;;;;;;;;;;;;;;;26.25;37.46;100999.25;5063994;28;20015;-84
2023/07/27 08:13:09;;;;;;;;;;;;;;;26.35;37.19;100997.97;5067184;28;19965;-83
2023/07/27 08:15:34;;;;;;;;;;;;;;;26.24;37.41;100992.16;5056743;28;19924;-83
2023/07/27 08:17:59;;;;;;;;;;;;;;;26.17;37.27;101000.97;5063773;28;20366;-84
2023/07/27 08:20:25;;;;;;;;;;;;;;;26.26;37.20;100989.84;5059116;28;19920;-83
2023/07/27 08:22:51;;;;;;;;;;;;;;;26.29;37.28;100994.66;5064087;28;20511;-81
2023/07/27 08:25:17;;;;;;;;;;;;;;;26.42;36.96;100995.44;5059822;28;19924;-83
2023/07/27 08:27:42;;;;;;;;;;;;;;;26.54;36.77;100997.31;5058481;28;19924;-84
2023/07/27 08:30:08;;;;;;;;;;;;;;;26.65;36.62;100996.50;5063662;28;19947;-83
2023/07/27 08:32:33;;;;;;;;;;;;;;;26.77;36.36;100982.69;5062833;28;19963;-83
2023/07/27 08:34:58;;;;;;;;;;;;;;;26.89;36.37;100990.06;5067015;28;19917;-83
2023/07/27 08:37:24;;;;;;;;;;;;;;;26.93;35.08;100993.72;5066012;28;19920;-82
2023/07/27 08:39:50;;;;;;;;;;;;;;;26.98;35.29;100985.19;5062660;28;19920;-82
2023/07/27 08:42:15;;;;;;;;;;;;;;;27.02;35.45;100993.56;5065208;28;20351;-83
2023/07/27 08:44:43;;;;;;;;;;;;;;;27.18;35.38;100990.84;5064051;28;19921;-82
2023/07/27 08:47:09;;;;;;;;;;;;;;;27.35;34.72;100987.72;5066553;28;20396;-82
2023/07/27 08:49:34;;;;;;;;;;;;;;;27.44;34.12;100976.53;5058051;28;19943;-83
2023/07/27 08:52:00;;;;;;;;;;;;;;;27.59;34.45;100971.00;5054687;28;19920;-82
2023/07/27 08:54:26;;;;;;;;;;;;;;;27.59;33.66;100972.97;5064240;28;19959;-85
2023/07/27 08:56:51;;;;;;;;;;;;;;;27.57;34.07;100964.25;5062991;28;20347;-85
2023/07/27 08:59:16;;;;;;;;;;;;;;;27.70;33.94;100963.03;5064421;28;19924;-85
2023/07/27 09:01:41;;;;;;;;;;;;;;;27.79;33.00;100966.38;5062495;28;19920;-86
2023/07/27 09:04:07;;;;;;;;;;;;;;;27.85;33.26;100961.41;5063076;28;19931;-85
2023/07/27 09:06:39;;;;;;;;;;;;;;;27.87;33.23;100959.09;5061369;28;20459;-84
2023/07/27 09:09:11;;;;;;;;;;;;;;;27.97;33.37;100961.25;5061158;28;19916;-85
2023/07/27 09:11:37;;;;;;;;;;;;;;;28.05;33.23;100952.00;5060745;28;19924;-83
2023/07/27 09:14:02;;;;;;;;;;;;;;;28.04;32.96;100955.91;5064624;28;19920;-82
2023/07/27 09:16:33;;;;;;;;;;;;;;;28.10;33.39;100950.91;5064256;28;19995;-82
2023/07/27 09:18:58;;;;;;;;;;;;;;;28.20;33.04;100950.34;5058776;28;19924;-82
2023/07/27 09:21:24;;;;;;;;;;;;;;;28.27;32.81;100947.75;5062493;28;19995;-82
2023/07/27 09:23:49;;;;;;;;;;;;;;;28.40;32.88;100940.94;5057862;28;19970;-82
2023/07/27 09:26:23;;;;;;;;;;;;;;;28.55;32.17;100937.28;5058903;28;19932;-83
2023/07/27 09:28:48;;;;;;;;;;;;;;;28.69;32.00;100933.19;5061906;28;19927;-85
2023/07/27 09:31:13;;;;;;;;;;;;;;;28.84;31.81;100929.53;5059820;28;19920;-85
2023/07/27 09:33:39;;;;;;;;;;;;;;;29.00;31.18;100924.72;5060116;28;20187;-85
2023/07/27 09:36:07;;;;;;;;;;;;;;;29.10;31.22;100924.09;5060752;28;19994;-84
2023/07/27 09:38:32;;;;;;;;;;;;;;;29.09;30.97;100925.25;5056385;28;19959;-86
2023/07/27 09:41:05;;;;;;;;;;;;;;;29.05;30.44;100910.59;5061548;28;20002;-86
2023/07/27 09:43:36;;;;;;;;;;;;;;;29.00;30.49;100921.16;5058030;28;19935;-85
2023/07/27 09:46:01;;;;;;;;;;;;;;;28.98;30.16;100912.44;5062576;28;19920;-84
2023/07/27 09:48:28;;;;;;;;;;;;;;;28.86;29.85;100916.19;5063756;28;20310;-83
2023/07/27 09:50:54;;;;;;;;;;;;;;;28.77;30.35;100916.41;5060252;28;19921;-84
2023/07/27 09:53:20;;;;;;;;;;;;;;;28.68;29.87;100915.03;5059762;28;19939;-84
2023/07/27 09:55:45;;;;;;;;;;;;;;;28.57;30.25;100912.13;5055103;28;20343;-83
2023/07/27 09:58:11;;;;;;;;;;;;;;;28.46;30.25;100917.41;5060777;28;19974;-86
2023/07/27 10:00:36;;;;;;;;;;;;;;;28.54;30.22;100918.34;5056155;28;19943;-87
2023/07/27 10:03:01;;;;;;;;;;;;;;;28.50;30.04;100912.75;5057268;28;20411;-85
2023/07/27 10:05:27;;;;;;;;;;;;;;;28.44;30.34;100908.72;5059232;28;20387;-82
2023/07/27 10:07:52;;;;;;;;;;;;;;;28.47;30.07;100908.00;5060151;28;19928;-86
2023/07/27 10:10:27;;;;;;;;;;;;;;;28.38;29.95;100901.94;5060896;28;19970;-87
2023/07/27 10:12:57;;;;;;;;;;;;;;;28.36;29.84;100901.47;5058178;28;19927;-84
2023/07/27 10:15:26;;;;;;;;;;;;;;;28.48;30.23;100900.50;5059432;28;19952;-84
2023/07/27 10:17:55;;;;;;;;;;;;;;;28.72;29.95;100902.13;5061702;28;20334;-84
2023/07/27 10:20:21;;;;;;;;;;;;;;;29.01;29.96;100892.41;5059158;28;20559;-84
2023/07/27 10:22:50;;;;;;;;;;;;;;;29.23;29.64;100897.09;5054017;28;20616;-83
2023/07/27 10:25:15;;;;;;;;;;;;;;;29.24;29.34;100892.34;5061400;28;19928;-84
2023/07/27 10:27:54;;;;;;;;;;;;;;;29.21;29.27;100890.34;5061143;28;20410;-88
2023/07/27 10:30:21;;;;;;;;;;;;;;;29.17;29.42;100884.78;5058949;28;19916;-84
2023/07/27 10:33:06;;;;;;;;;;;;;;;29.25;29.35;100883.69;5058480;28;19969;-87
2023/07/27 10:35:51;;;;;;;;;;;;;;;29.22;29.21;100894.69;5061634;28;19920;-82
2023/07/27 10:38:16;;;;;;;;;;;;;;;29.13;28.85;100881.97;5051865;28;20102;-84
2023/07/27 10:40:43;;;;;;;;;;;;;;;29.16;29.04;100869.41;5053061;28;19925;-84
2023/07/27 10:43:08;;;;;;;;;;;;;;;29.08;29.12;100865.72;5053119;28;19920;-84
2023/07/27 10:45:34;;;;;;;;;;;;;;;29.10;29.44;100871.69;5061061;28;19920;-84
2023/07/27 10:47:59;;;;;;;;;;;;;;;29.22;29.37;100862.38;5060960;28;20408;-84
2023/07/27 10:50:24;;;;;;;;;;;;;;;29.29;29.16;100864.47;5065524;28;19924;-84
2023/07/27 10:52:53;;;;;;;;;;;;;;;29.44;29.20;100855.19;5062968;28;19924;-83
2023/07/27 10:55:21;;;;;;;;;;;;;;;29.62;29.06;100856.25;5059660;28;19920;-83
2023/07/27 10:57:47;;;;;;;;;;;;;;;29.64;28.80;100848.41;5059903;28;19994;-83
2023/07/27 11:00:13;;;;;;;;;;;;;;;29.72;29.29;100849.28;5066942;28;19921;-85
2023/07/27 11:02:39;;;;;;;;;;;;;;;29.76;28.95;100847.38;5062482;28;19924;-88
2023/07/27 11:05:06;;;;;;;;;;;;;;;29.89;28.89;100842.41;5063192;28;20459;-87
2023/07/27 11:07:32;;;;;;;;;;;;;;;29.89;28.84;100843.19;5059722;28;19932;-83
2023/07/27 11:10:20;;;;;;;;;;;;;;;29.79;28.67;100833.59;5064472;28;19920;-83
2023/07/27 11:12:49;;;;;;;;;;;;;;;29.71;28.26;100829.16;5062601;28;19956;-86
2023/07/27 11:15:26;;;;;;;;;;;;;;;29.71;28.09;100820.88;5061347;28;19947;-83
2023/07/27 11:17:56;;;;;;;;;;;;;;;29.84;28.61;100834.47;5063812;28;19920;-84
2023/07/27 11:20:22;;;;;;;;;;;;;;;29.79;28.38;100833.59;5062527;28;20043;-87
2023/07/27 11:22:48;;;;;;;;;;;;;;;29.86;28.56;100808.03;5055439;28;19925;-86
2023/07/27 11:25:13;;;;;;;;;;;;;;;29.99;28.29;100827.94;5063168;28;19923;-87
2023/07/27 11:27:39;;;;;;;;;;;;;;;30.07;27.91;100804.75;5059105;28;20688;-86
2023/07/27 11:30:07;;;;;;;;;;;;;;;30.21;28.47;100809.63;5060369;28;19921;-88
2023/07/27 11:32:33;;;;;;;;;;;;;;;30.15;27.96;100809.16;5060532;28;19921;-86
2023/07/27 11:34:58;;;;;;;;;;;;;;;30.03;28.46;100815.72;5066212;28;19927;-88
2023/07/27 11:37:25;;;;;;;;;;;;;;;29.97;28.39;100802.63;5059129;28;19962;-86
2023/07/27 11:39:50;;;;;;;;;;;;;;;29.89;27.98;100803.72;5054640;28;19917;-86
2023/07/27 11:42:25;;;;;;;;;;;;;;;29.85;27.92;100797.38;5062312;28;20155;-87
2023/07/27 11:44:50;;;;;;;;;;;;;;;29.72;28.38;100794.06;5056404;28;20019;-87
2023/07/27 11:47:15;;;;;;;;;;;;;;;29.67;28.24;100792.44;5060794;28;20022;-87
2023/07/27 11:49:41;;;;;;;;;;;;;;;29.63;28.38;100788.84;5060295;28;19920;-86
2023/07/27 11:52:07;;;;;;;;;;;;;;;29.58;28.02;100789.16;5066996;28;19920;-84
2023/07/27 11:54:37;;;;;;;;;;;;;;;29.52;28.39;100787.91;5061918;28;19963;-86
2023/07/27 11:57:03;;;;;;;;;;;;;;;29.41;28.56;100778.66;5057949;28;20015;-85
2023/07/27 11:59:28;;;;;;;;;;;;;;;29.42;28.51;100780.25;5061311;28;20014;-86
2023/07/27 12:01:53;;;;;;;;;;;;;;;29.34;28.40;100773.88;5057137;28;19928;-84
2023/07/27 12:04:19;;;;;;;;;;;;;;;29.33;28.65;100774.25;5063174;28;20353;-84
2023/07/27 12:06:44;;;;;;;;;;;;;;;29.41;28.41;100781.44;5060164;28;20001;-84
2023/07/27 12:09:11;;;;;;;;;;;;;;;29.42;28.35;100771.97;5060604;28;19921;-85
2023/07/27 12:11:37;;;;;;;;;;;;;;;29.55;28.39;100778.88;5057984;28;19920;-87
2023/07/27 12:14:06;;;;;;;;;;;;;;;29.53;28.40;100775.69;5066340;28;20312;-86
2023/07/27 12:16:37;;;;;;;;;;;;;;;29.45;27.92;100772.06;5062571;28;19920;-86
2023/07/27 12:19:03;;;;;;;;;;;;;;;29.43;28.25;100773.56;5061592;28;19967;-83
2023/07/27 12:21:28;;;;;;;;;;;;;;;29.42;28.08;100769.22;5065329;28;20554;-83
2023/07/27 12:23:53;;;;;;;;;;;;;;;29.39;28.32;100770.75;5063150;28;19927;-85
2023/07/27 12:26:19;;;;;;;;;;;;;;;29.29;28.30;100754.09;5064424;28;19924;-83
2023/07/27 12:28:44;;;;;;;;;;;;;;;29.27;28.06;100761.94;5060805;28;19921;-85
2023/07/27 12:31:09;;;;;;;;;;;;;;;29.22;28.05;100751.22;5058194;28;19960;-87